Time;durP1;ratioP1;P1;durP2;ratioP2;P2;SDS_P1;SDS_P2;PMS_P1;PMS_P2;Temp;Humidity;BMP_temperature;BMP_pressure;BME280_temperature;BME280_humidity;BME280_pressure;Samples;Min_cycle;Max_cycle;Signal;HPM_P1;HPM_P2
2023/02/09 00:01:59;;;;;;;70.03;37.20;;;;;;;-2.34;100.00;103485.78;5057666;28;20503;-64
2023/02/09 00:04:25;;;;;;;72.53;37.73;;;;;;;-2.40;100.00;103482.53;5053073;28;20193;-64
2023/02/09 00:06:50;;;;;;;67.33;36.50;;;;;;;-2.43;100.00;103473.06;5064800;28;20651;-64
2023/02/09 00:09:15;;;;;;;71.57;38.27;;;;;;;-2.44;100.00;103465.41;5053952;28;20197;-64
2023/02/09 00:14:25;;;;;;;70.30;37.53;;;;;;;-2.46;100.00;103462.72;5050635;28;20213;-64
2023/02/09 00:16:51;;;;;;;71.07;37.13;;;;;;;-2.47;100.00;103460.03;5057347;28;20467;-64
2023/02/09 00:19:19;;;;;;;78.17;40.47;;;;;;;-2.47;100.00;103455.00;5039187;28;20665;-64
2023/02/09 00:21:44;;;;;;;74.43;39.87;;;;;;;-2.40;100.00;103458.38;5060138;28;20545;-64
2023/02/09 00:24:10;;;;;;;79.73;40.60;;;;;;;-2.35;100.00;103444.72;5048558;28;20452;-64
2023/02/09 00:26:36;;;;;;;80.57;41.87;;;;;;;-2.35;100.00;103439.72;5060372;28;20222;-64
2023/02/09 00:29:02;;;;;;;85.80;42.53;;;;;;;-2.35;100.00;103442.22;5061372;28;20206;-64
2023/02/09 00:31:28;;;;;;;91.77;45.23;;;;;;;-2.36;100.00;103439.53;5055942;28;20216;-66
2023/02/09 00:33:54;;;;;;;78.60;43.13;;;;;;;-2.40;100.00;103430.78;5061049;28;20551;-64
2023/02/09 00:36:19;;;;;;;82.90;41.30;;;;;;;-2.38;100.00;103431.88;5039519;28;20221;-64
2023/02/09 00:38:46;;;;;;;86.00;42.57;;;;;;;-2.35;100.00;103422.16;5039983;28;20242;-64
2023/02/09 00:41:13;;;;;;;80.47;43.07;;;;;;;-2.36;100.00;103415.38;5052429;28;20529;-64
2023/02/09 00:43:39;;;;;;;89.87;44.50;;;;;;;-2.32;100.00;103416.59;5045330;28;20239;-63
2023/02/09 00:46:05;;;;;;;87.13;43.70;;;;;;;-2.33;100.00;103409.81;5054160;28;20471;-64
2023/02/09 00:48:31;;;;;;;80.87;42.33;;;;;;;-2.34;100.00;103410.53;5034774;28;20440;-64
2023/02/09 00:50:56;;;;;;;85.87;42.77;;;;;;;-2.35;100.00;103408.75;5042256;28;20197;-66
2023/02/09 00:53:22;;;;;;;86.13;43.20;;;;;;;-2.36;100.00;103394.41;5042200;28;20248;-64
2023/02/09 00:55:48;;;;;;;81.43;44.07;;;;;;;-2.35;100.00;103392.06;5053976;28;20220;-64
2023/02/09 00:58:14;;;;;;;91.30;44.50;;;;;;;-2.34;100.00;103390.47;5055399;28;20248;-64
2023/02/09 01:00:39;;;;;;;88.07;45.33;;;;;;;-2.34;100.00;103382.94;5042058;28;20864;-64
2023/02/09 01:03:05;;;;;;;88.43;45.60;;;;;;;-2.34;100.00;103380.44;5039275;28;20221;-64
2023/02/09 01:05:31;;;;;;;85.93;44.27;;;;;;;-2.33;100.00;103378.09;5040983;28;20213;-64
2023/02/09 01:07:57;;;;;;;84.67;42.77;;;;;;;-2.34;100.00;103375.41;5040505;28;20201;-64
2023/02/09 01:10:23;;;;;;;83.80;43.57;;;;;;;-2.33;100.00;103382.22;5056329;28;20192;-64
2023/02/09 01:12:48;;;;;;;83.20;42.60;;;;;;;-2.36;100.00;103377.75;5051144;28;20276;-64
2023/02/09 01:15:14;;;;;;;80.70;44.07;;;;;;;-2.37;100.00;103381.00;5048072;28;20562;-64
2023/02/09 01:17:42;;;;;;;87.40;44.13;;;;;;;-2.39;100.00;103376.53;5040789;28;20197;-64
2023/02/09 01:20:11;;;;;;;83.87;44.20;;;;;;;-2.41;100.00;103370.44;5024350;28;20538;-65
2023/02/09 01:22:37;;;;;;;86.17;43.07;;;;;;;-2.41;100.00;103378.84;5037303;28;20587;-65
2023/02/09 01:25:05;;;;;;;88.97;43.40;;;;;;;-2.38;100.00;103378.31;5037657;28;20451;-64
2023/02/09 01:27:30;;;;;;;88.87;44.80;;;;;;;-2.41;100.00;103372.94;5054569;28;20451;-64
2023/02/09 01:29:58;;;;;;;87.03;44.00;;;;;;;-2.46;100.00;103367.44;5035775;28;20816;-64
2023/02/09 01:32:23;;;;;;;87.07;43.13;;;;;;;-2.48;100.00;103366.34;5051954;28;20441;-64
2023/02/09 01:34:50;;;;;;;87.60;45.27;;;;;;;-2.50;100.00;103359.38;5025614;28;20206;-66
2023/02/09 01:37:16;;;;;;;85.63;44.20;;;;;;;-2.51;100.00;103360.09;5046583;28;20213;-64
2023/02/09 01:39:42;;;;;;;85.20;44.77;;;;;;;-2.51;100.00;103357.59;5046642;28;20824;-64
2023/02/09 01:42:16;;;;;;;94.27;46.43;;;;;;;-2.53;100.00;103347.41;5048121;28;20267;-66
2023/02/09 01:44:42;;;;;;;86.60;42.93;;;;;;;-2.56;100.00;103339.56;5032730;28;20561;-66
2023/02/09 01:47:16;;;;;;;88.73;43.83;;;;;;;-2.57;100.00;103337.75;5047047;28;20972;-66
2023/02/09 01:49:45;;;;;;;84.53;43.23;;;;;;;-2.60;100.00;103339.94;5030577;28;20189;-64
2023/02/09 01:52:30;;;;;;;82.93;41.07;;;;;;;-2.68;100.00;103338.19;5036200;28;20436;-66
2023/02/09 01:55:06;;;;;;;84.23;43.33;;;;;;;-2.75;100.00;103333.19;5031030;28;20444;-64
2023/02/09 01:57:40;;;;;;;81.80;41.40;;;;;;;-2.74;100.00;103327.50;5036635;28;20455;-64
2023/02/09 02:00:13;;;;;;;84.93;42.43;;;;;;;-2.74;100.00;103319.97;5038923;28;20467;-66
2023/02/09 02:02:42;;;;;;;85.20;41.40;;;;;;;-2.73;100.00;103318.34;5052264;28;20490;-66
2023/02/09 02:05:08;;;;;;;77.47;40.77;;;;;;;-2.77;100.00;103324.63;5039066;28;20459;-65
2023/02/09 02:07:59;;;;;;;80.30;42.00;;;;;;;-2.87;100.00;103324.31;5036493;28;20449;-66
2023/02/09 02:10:25;;;;;;;74.67;38.97;;;;;;;-2.87;100.00;103319.31;5048698;28;20202;-66
2023/02/09 02:12:53;;;;;;;78.13;39.20;;;;;;;-2.94;100.00;103309.31;5032617;28;20435;-66
2023/02/09 02:15:21;;;;;;;76.43;39.60;;;;;;;-2.94;100.00;103310.94;5040392;28;20458;-66
2023/02/09 02:18:16;;;;;;;75.03;40.17;;;;;;;-3.01;100.00;103308.47;5031800;28;20469;-65
2023/02/09 02:21:13;;;;;;;82.67;40.37;;;;;;;-3.05;100.00;103304.72;5039611;28;20513;-66
2023/02/09 02:24:04;;;;;;;79.77;40.83;;;;;;;-3.09;100.00;103309.25;5045163;28;20478;-66
2023/02/09 02:26:39;;;;;;;78.53;40.73;;;;;;;-3.15;100.00;103298.50;5033085;28;20652;-63
2023/02/09 02:29:19;;;;;;;75.83;40.33;;;;;;;-3.19;100.00;103293.88;5041745;28;20454;-65
2023/02/09 02:32:09;;;;;;;76.10;38.90;;;;;;;-3.29;100.00;103301.06;5055091;28;20454;-63
2023/02/09 02:34:49;;;;;;;81.53;40.63;;;;;;;-3.30;100.00;103306.81;5058008;28;21019;-65
2023/02/09 02:37:36;;;;;;;76.67;39.53;;;;;;;-3.35;100.00;103298.75;5056774;28;20454;-63
2023/02/09 02:40:27;;;;;;;79.33;38.80;;;;;;;-3.40;100.00;103297.34;5055556;28;20451;-65
2023/02/09 02:42:58;;;;;;;84.73;40.20;;;;;;;-3.43;100.00;103292.00;5026825;28;20523;-65
2023/02/09 02:45:36;;;;;;;73.93;38.07;;;;;;;-3.47;100.00;103289.88;5060343;28;20471;-65
2023/02/09 02:48:24;;;;;;;76.07;40.50;;;;;;;-3.50;100.00;103289.50;5031518;28;20467;-65
2023/02/09 02:51:03;;;;;;;80.57;40.47;;;;;;;-3.46;100.00;103295.75;5059165;28;20450;-65
2023/02/09 02:53:31;;;;;;;84.23;40.53;;;;;;;-3.44;100.00;103290.22;5056162;28;20947;-65
2023/02/09 02:56:04;;;;;;;78.63;40.80;;;;;;;-3.42;100.00;103285.38;5058376;28;20901;-65
2023/02/09 02:58:32;;;;;;;86.07;42.53;;;;;;;-3.40;100.00;103277.31;5043744;28;20853;-65
2023/02/09 03:01:01;;;;;;;83.67;41.83;;;;;;;-3.43;100.00;103278.59;5060061;28;20440;-65
2023/02/09 03:03:33;;;;;;;86.60;40.17;;;;;;;-3.47;100.00;103277.34;5043060;28;20471;-65
2023/02/09 03:06:02;;;;;;;78.37;40.60;;;;;;;-3.53;100.00;103279.19;5056616;28;20987;-65
2023/02/09 03:08:28;;;;;;;80.43;40.73;;;;;;;-3.55;100.00;103272.22;5057761;28;20846;-65
2023/02/09 03:10:53;;;;;;;83.90;42.37;;;;;;;-3.61;100.00;103269.91;5052225;28;20447;-65
2023/02/09 03:13:45;;;;;;;80.73;40.23;;;;;;;-3.62;100.00;103263.13;5051308;28;20204;-65
2023/02/09 03:16:26;;;;;;;81.07;40.17;;;;;;;-3.62;100.00;103262.22;5058913;28;20708;-65
2023/02/09 03:19:07;;;;;;;74.93;38.17;;;;;;;-3.64;100.00;103269.53;5054941;28;20496;-65
2023/02/09 03:21:38;;;;;;;83.73;41.27;;;;;;;-3.64;100.00;103269.53;5055021;28;20436;-66
2023/02/09 03:24:18;;;;;;;76.43;38.40;;;;;;;-3.66;100.00;103268.50;5053705;28;20488;-66
2023/02/09 03:26:49;;;;;;;81.23;40.20;;;;;;;-3.72;100.00;103269.41;5060724;28;20462;-65
2023/02/09 03:29:17;;;;;;;81.83;39.40;;;;;;;-3.71;100.00;103262.06;5056184;28;20448;-66
2023/02/09 03:31:43;;;;;;;85.10;41.90;;;;;;;-3.61;100.00;103256.47;5058061;28;20444;-66
2023/02/09 03:34:09;;;;;;;80.63;39.93;;;;;;;-3.62;100.00;103254.69;5055199;28;20507;-66
2023/02/09 03:36:37;;;;;;;83.87;41.70;;;;;;;-3.64;100.00;103244.50;5056897;28;20963;-66
2023/02/09 03:39:03;;;;;;;81.63;39.83;;;;;;;-3.65;100.00;103240.22;5055481;28;20436;-66
2023/02/09 03:41:28;;;;;;;76.57;39.73;;;;;;;-3.70;100.00;103230.41;5061196;28;20439;-66
2023/02/09 03:46:37;;;;;;;82.10;41.50;;;;;;;-3.79;100.00;103232.78;5061033;28;20281;-65
2023/02/09 03:49:03;;;;;;;82.60;39.07;;;;;;;-3.80;100.00;103232.59;5041795;28;20451;-65
2023/02/09 03:51:28;;;;;;;76.87;39.33;;;;;;;-3.81;100.00;103228.31;5052580;28;20277;-65
2023/02/09 03:53:54;;;;;;;83.23;39.90;;;;;;;-3.84;100.00;103228.84;5055356;28;20276;-65
2023/02/09 03:56:23;;;;;;;81.33;39.40;;;;;;;-3.84;100.00;103221.34;5054924;28;20247;-65
2023/02/09 03:58:49;;;;;;;79.07;37.97;;;;;;;-3.73;100.00;103220.06;5053680;28;20568;-65
2023/02/09 04:01:15;;;;;;;80.73;37.50;;;;;;;-3.70;100.00;103211.31;5045013;28;20444;-65
2023/02/09 04:03:40;;;;;;;76.27;36.73;;;;;;;-3.77;100.00;103215.44;5053139;28;20213;-65
2023/02/09 04:06:06;;;;;;;77.07;38.23;;;;;;;-3.76;100.00;103219.72;5052673;28;20688;-65
2023/02/09 04:08:32;;;;;;;75.03;38.37;;;;;;;-3.77;100.00;103216.31;5037243;28;20197;-65
2023/02/09 04:10:58;;;;;;;71.93;35.80;;;;;;;-3.72;100.00;103207.72;5054300;28;20197;-65
2023/02/09 04:13:24;;;;;;;71.23;37.43;;;;;;;-3.70;100.00;103198.78;5052780;28;20447;-65
2023/02/09 04:15:50;;;;;;;72.13;34.93;;;;;;;-3.68;100.00;103193.97;5055783;28;20484;-65
2023/02/09 04:18:16;;;;;;;65.67;34.27;;;;;;;-3.72;100.00;103197.69;5054468;28;20444;-65
2023/02/09 04:20:41;;;;;;;74.07;36.80;;;;;;;-3.76;100.00;103193.09;5043210;28;20526;-65
2023/02/09 04:23:07;;;;;;;69.33;32.80;;;;;;;-3.67;100.00;103199.16;5056932;28;20244;-65
2023/02/09 04:25:32;;;;;;;63.53;32.10;;;;;;;-3.66;100.00;103195.91;5058074;28;20305;-65
2023/02/09 04:27:58;;;;;;;66.33;31.30;;;;;;;-3.67;100.00;103191.63;5056085;28;20201;-65
2023/02/09 04:30:23;;;;;;;60.23;32.53;;;;;;;-3.73;100.00;103187.56;5059186;28;20212;-65
2023/02/09 04:32:49;;;;;;;62.37;33.03;;;;;;;-3.66;100.00;103188.41;5057061;28;20189;-65
2023/02/09 04:35:14;;;;;;;61.00;32.53;;;;;;;-3.67;100.00;103185.72;5054870;28;20224;-65
2023/02/09 04:37:40;;;;;;;61.77;30.43;;;;;;;-3.72;100.00;103186.81;5051649;28;20238;-64
2023/02/09 04:40:05;;;;;;;63.33;32.03;;;;;;;-3.72;100.00;103186.81;5051138;28;20197;-65
2023/02/09 04:42:31;;;;;;;58.73;31.80;;;;;;;-3.77;100.00;103188.78;5034417;28;20205;-65
2023/02/09 04:44:56;;;;;;;61.60;31.73;;;;;;;-3.68;100.00;103189.81;5051283;28;20571;-65
2023/02/09 04:47:22;;;;;;;58.90;30.00;;;;;;;-3.66;100.00;103188.41;5052451;28;20214;-65
2023/02/09 04:49:48;;;;;;;62.37;29.53;;;;;;;-3.66;100.00;103190.00;5047403;28;20192;-64
2023/02/09 04:52:13;;;;;;;59.50;29.70;;;;;;;-3.72;100.00;103186.81;5041153;28;20185;-65
2023/02/09 04:54:39;;;;;;;57.87;29.50;;;;;;;-3.77;100.00;103180.41;5052920;28;20239;-65
2023/02/09 04:59:48;;;;;;;56.03;28.93;;;;;;;-3.79;100.00;103167.72;5058275;28;20686;-65
2023/02/09 05:02:14;;;;;;;56.27;27.50;;;;;;;-3.80;100.00;103173.47;5054901;28;20474;-65
2023/02/09 05:04:39;;;;;;;56.40;27.90;;;;;;;-3.79;100.00;103161.81;5050110;28;20657;-65
2023/02/09 05:07:05;;;;;;;57.00;28.90;;;;;;;-3.81;100.00;103161.66;5050475;28;20713;-65
2023/02/09 05:09:30;;;;;;;61.97;31.33;;;;;;;-3.78;100.00;103159.50;5050927;28;20725;-65
2023/02/09 05:11:56;;;;;;;61.17;29.60;;;;;;;-3.76;100.00;103155.56;5037532;28;20248;-65
2023/02/09 05:14:21;;;;;;;60.20;28.93;;;;;;;-3.78;100.00;103148.63;5051109;28;20193;-65
2023/02/09 05:16:46;;;;;;;56.53;29.07;;;;;;;-3.78;100.00;103149.47;5051319;28;20568;-65
2023/02/09 05:19:12;;;;;;;57.63;28.80;;;;;;;-3.79;100.00;103152.72;5051843;28;20585;-65
2023/02/09 05:21:37;;;;;;;57.75;28.70;;;;;;;-3.79;100.00;103142.72;5058081;28;20692;-65
2023/02/09 05:24:03;;;;;;;57.37;27.90;;;;;;;-3.79;100.00;103154.31;5048949;28;20784;-64
2023/02/09 05:26:29;;;;;;;58.47;29.17;;;;;;;-3.81;100.00;103153.25;5056928;28;20221;-65
2023/02/09 05:28:54;;;;;;;58.77;29.70;;;;;;;-3.84;100.00;103157.91;5056027;28;20229;-65
2023/02/09 05:31:19;;;;;;;54.17;27.77;;;;;;;-3.84;100.00;103167.91;5053755;28;20204;-64
2023/02/09 05:33:52;;;;;;;53.03;28.10;;;;;;;-3.85;100.00;103158.63;5055501;28;20192;-66
2023/02/09 05:36:18;;;;;;;52.97;26.80;;;;;;;-3.84;100.00;103162.91;5051689;28;20256;-65
2023/02/09 05:38:43;;;;;;;56.70;27.53;;;;;;;-3.86;100.00;103171.88;5058379;28;20463;-65
2023/02/09 05:42:13;;;;;;;54.60;27.50;;;;;;;-3.90;100.00;103174.72;5058280;28;20193;-65
2023/02/09 05:43:57;;;;;;;57.87;27.97;;;;;;;-3.91;100.00;103181.34;5058072;28;20286;-65
2023/02/09 05:46:22;;;;;;;52.03;26.33;;;;;;;-3.88;100.00;103165.78;5052230;28;20455;-65
2023/02/09 05:48:48;;;;;;;53.00;26.67;;;;;;;-3.81;100.00;103156.66;5057989;28;20193;-65
2023/02/09 05:51:13;;;;;;;58.07;28.60;;;;;;;-3.79;100.00;103141.81;5056897;28;20250;-65
2023/02/09 05:53:39;;;;;;;61.33;28.13;;;;;;;-3.76;100.00;103134.66;5050633;28;20273;-65
2023/02/09 05:56:04;;;;;;;59.00;27.53;;;;;;;-3.77;100.00;103140.38;5055242;28;20214;-65
2023/02/09 05:58:30;;;;;;;55.67;27.13;;;;;;;-3.82;100.00;103138.97;5056580;28;20197;-65
2023/02/09 06:00:56;;;;;;;49.33;25.80;;;;;;;-3.86;100.00;103140.22;5055550;28;20194;-65
2023/02/09 06:03:21;;;;;;;54.90;26.60;;;;;;;-3.87;100.00;103125.94;5057667;28;20223;-65
2023/02/09 06:05:46;;;;;;;59.03;27.73;;;;;;;-3.73;100.00;103120.00;5052613;28;20221;-65
2023/02/09 06:08:12;;;;;;;54.00;27.33;;;;;;;-3.61;100.00;103123.84;5056579;28;20556;-65
2023/02/09 06:10:37;;;;;;;52.33;28.07;;;;;;;-3.58;100.00;103122.56;5053308;28;20225;-65
2023/02/09 06:13:03;;;;;;;49.83;26.77;;;;;;;-3.56;100.00;103146.16;5050975;28;20570;-65
2023/02/09 06:15:28;;;;;;;50.77;26.60;;;;;;;-3.58;100.00;103151.72;5054537;28;20213;-65
2023/02/09 06:17:53;;;;;;;50.87;25.43;;;;;;;-3.60;100.00;103165.66;5056590;28;20190;-65
2023/02/09 06:20:19;;;;;;;52.33;25.23;;;;;;;-3.62;100.00;103173.03;5055218;28;20300;-65
2023/02/09 06:22:44;;;;;;;44.53;24.40;;;;;;;-3.67;100.00;103168.22;5057560;28;21235;-65
2023/02/09 06:25:10;;;;;;;54.77;26.37;;;;;;;-3.74;100.00;103173.22;5053244;28;20690;-65
2023/02/09 06:27:35;;;;;;;45.47;23.83;;;;;;;-3.77;100.00;103177.91;5048260;28;20202;-65
2023/02/09 06:30:01;;;;;;;53.03;24.97;;;;;;;-3.78;100.00;103186.16;5051922;28;20185;-65
2023/02/09 06:32:26;;;;;;;48.80;25.07;;;;;;;-3.83;100.00;103190.59;5060757;28;20193;-65
2023/02/09 06:34:51;;;;;;;51.57;25.80;;;;;;;-3.83;100.00;103204.72;5055914;28;20276;-65
2023/02/09 06:37:17;;;;;;;48.37;24.30;;;;;;;-3.85;100.00;103198.66;5058452;28;20301;-65
2023/02/09 06:39:42;;;;;;;46.27;24.53;;;;;;;-3.78;100.00;103197.03;5053589;28;20224;-65
2023/02/09 06:42:08;;;;;;;46.23;23.37;;;;;;;-3.69;100.00;103189.69;5042682;28;20677;-65
2023/02/09 06:44:33;;;;;;;45.10;24.27;;;;;;;-3.65;100.00;103187.69;5033428;28;20201;-65
2023/02/09 06:46:59;;;;;;;48.73;24.00;;;;;;;-3.68;100.00;103176.44;5054705;28;20221;-65
2023/02/09 06:49:25;;;;;;;46.30;23.53;;;;;;;-3.68;100.00;103186.47;5043622;28;20259;-65
2023/02/09 06:51:50;;;;;;;45.27;24.07;;;;;;;-3.73;100.00;103193.44;5046573;28;20296;-65
2023/02/09 06:54:16;;;;;;;47.73;23.67;;;;;;;-3.77;100.00;103183.78;5044553;28;20472;-64
2023/02/09 06:56:41;;;;;;;48.17;23.50;;;;;;;-3.74;100.00;103200.75;5053178;28;20270;-65
2023/02/09 06:59:07;;;;;;;47.67;24.00;;;;;;;-3.64;100.00;103191.09;5052996;28;20667;-65
2023/02/09 07:01:32;;;;;;;47.13;23.53;;;;;;;-3.56;100.00;103196.22;5054598;28;20292;-65
2023/02/09 07:03:58;;;;;;;49.23;24.50;;;;;;;-3.48;100.00;103190.47;5055633;28;20237;-65
2023/02/09 07:06:23;;;;;;;46.03;23.07;;;;;;;-3.43;100.00;103181.88;5056959;28;20216;-65
2023/02/09 07:08:49;;;;;;;44.37;23.43;;;;;;;-3.42;100.00;103173.63;5057892;28;20618;-65
2023/02/09 07:11:16;;;;;;;46.37;22.90;;;;;;;-3.39;100.00;103168.97;5057698;28;20304;-65
2023/02/09 07:13:42;;;;;;;42.50;21.97;;;;;;;-3.37;100.00;103184.13;5060668;28;20185;-65
2023/02/09 07:16:10;;;;;;;43.80;22.40;;;;;;;-3.31;100.00;103177.34;5042068;28;20992;-65
2023/02/09 07:18:36;;;;;;;46.13;23.37;;;;;;;-3.28;100.00;103166.03;5059404;28;20448;-65
2023/02/09 07:21:04;;;;;;;45.63;21.80;;;;;;;-3.19;100.00;103167.06;5054702;28;20460;-65
2023/02/09 07:23:31;;;;;;;49.20;24.10;;;;;;;-3.16;100.00;103153.97;5061820;28;20886;-65
2023/02/09 07:26:00;;;;;;;45.33;23.20;;;;;;;-3.09;100.00;103161.47;5046607;28;20463;-65
2023/02/09 07:28:26;;;;;;;43.00;22.40;;;;;;;-3.01;100.00;103164.06;5052640;28;20460;-65
2023/02/09 07:30:52;;;;;;;43.13;21.70;;;;;;;-2.92;100.00;103167.59;5046917;28;20450;-65
2023/02/09 07:33:18;;;;;;;40.73;21.43;;;;;;;-2.81;100.00;103156.25;5057657;28;20233;-65
2023/02/09 07:35:44;;;;;;;41.30;20.63;;;;;;;-2.67;100.00;103151.97;5054711;28;20308;-65
2023/02/09 07:38:10;;;;;;;45.37;21.23;;;;;;;-2.59;100.00;103157.81;5055365;28;20498;-65
2023/02/09 07:40:37;;;;;;;38.47;20.27;;;;;;;-2.49;100.00;103150.59;5061477;28;20846;-65
2023/02/09 07:43:03;;;;;;;37.10;18.57;;;;;;;-2.41;100.00;103150.66;5057209;28;20629;-65
2023/02/09 07:45:29;;;;;;;33.77;18.47;;;;;;;-2.34;100.00;103155.59;5056630;28;20855;-65
2023/02/09 07:47:54;;;;;;;35.37;18.73;;;;;;;-2.20;100.00;103157.97;5057496;28;20447;-65
2023/02/09 07:50:20;;;;;;;38.13;19.20;;;;;;;-2.15;100.00;103158.47;5056419;28;20228;-65
2023/02/09 07:52:45;;;;;;;38.80;18.97;;;;;;;-2.05;100.00;103158.72;5044671;28;20177;-65
2023/02/09 07:55:11;;;;;;;34.97;17.50;;;;;;;-1.96;100.00;103154.66;5053824;28;20198;-65
2023/02/09 07:57:36;;;;;;;32.83;18.07;;;;;;;-1.88;100.00;103153.84;5056942;28;20220;-65
2023/02/09 08:00:03;;;;;;;31.60;18.17;;;;;;;-1.78;100.00;103165.03;5057664;28;20198;-65
2023/02/09 08:02:34;;;;;;;36.07;18.00;;;;;;;-1.70;100.00;103163.31;5048841;28;20228;-65
2023/02/09 08:05:00;;;;;;;32.90;17.20;;;;;;;-1.61;100.00;103167.66;5055093;28;20500;-65
2023/02/09 08:07:26;;;;;;;27.60;16.27;;;;;;;-1.51;100.00;103162.00;5056533;28;20445;-65
2023/02/09 08:09:51;;;;;;;34.53;17.53;;;;;;;-1.42;100.00;103173.88;5059026;28;20193;-66
2023/02/09 08:12:19;;;;;;;34.33;16.87;;;;;;;-1.34;100.00;103165.50;5053947;28;20444;-65
2023/02/09 08:14:49;;;;;;;31.73;16.47;;;;;;;-1.25;100.00;103174.00;5056765;28;20188;-65
2023/02/09 08:17:26;;;;;;;30.83;16.47;;;;;;;-1.17;100.00;103170.66;5051136;28;20702;-65
2023/02/09 08:20:03;;;;;;;29.00;15.87;;;;;;;-1.06;100.00;103180.19;5039587;28;20196;-65
2023/02/09 08:22:33;;;;;;;28.27;15.60;;;;;;;-1.03;100.00;103178.00;5054679;28;20218;-65
2023/02/09 08:25:02;;;;;;;32.30;16.20;;;;;;;-0.94;100.00;103186.47;5063827;28;20193;-65
2023/02/09 08:27:28;;;;;;;26.47;16.00;;;;;;;-0.79;100.00;103187.13;5057862;28;20272;-65
2023/02/09 08:29:54;;;;;;;29.37;16.07;;;;;;;-0.66;100.00;103182.59;5052039;28;20196;-65
2023/02/09 08:32:19;;;;;;;28.93;16.03;;;;;;;-0.58;100.00;103179.25;5038267;28;20268;-65
2023/02/09 08:34:46;;;;;;;29.60;15.50;;;;;;;-0.46;100.00;103186.38;5041454;28;20658;-65
2023/02/09 08:37:11;;;;;;;30.90;16.23;;;;;;;-0.35;100.00;103195.03;5052565;28;20306;-65
2023/02/09 08:39:37;;;;;;;27.73;14.97;;;;;;;-0.32;100.00;103188.66;5059158;28;20284;-65
2023/02/09 08:42:02;;;;;;;28.40;15.10;;;;;;;-0.21;100.00;103177.16;5059385;28;20221;-65
2023/02/09 08:44:27;;;;;;;25.03;15.00;;;;;;;-0.15;100.00;103178.66;5042504;28;20548;-65
2023/02/09 08:46:53;;;;;;;27.87;15.63;;;;;;;0.02;100.00;103180.31;5057342;28;20221;-67
2023/02/09 08:49:18;;;;;;;28.10;14.87;;;;;;;0.05;100.00;103168.03;5060211;28;20202;-65
2023/02/09 08:51:44;;;;;;;28.07;15.17;;;;;;;0.09;100.00;103168.47;5051928;28;20697;-65
2023/02/09 08:54:09;;;;;;;25.10;14.67;;;;;;;0.24;100.00;103164.91;5048920;28;20312;-65
2023/02/09 08:56:35;;;;;;;27.30;15.57;;;;;;;0.31;100.00;103155.47;5056977;28;20214;-65
2023/02/09 08:59:00;;;;;;;30.67;14.70;;;;;;;0.45;100.00;103162.72;5058244;28;20188;-65
2023/02/09 09:01:26;;;;;;;26.00;14.30;;;;;;;0.49;100.00;103149.69;5062552;28;20558;-65
2023/02/09 09:03:51;;;;;;;24.43;13.30;;;;;;;0.93;100.00;103145.59;5042509;28;20590;-65
2023/02/09 09:06:17;;;;;;;25.43;13.27;;;;;;;1.28;100.00;103151.41;5053753;28;20209;-66
2023/02/09 09:08:42;;;;;;;23.90;13.40;;;;;;;1.61;100.00;103145.28;5054535;28;20202;-66
2023/02/09 09:11:11;;;;;;;24.03;13.80;;;;;;;2.34;100.00;103143.59;5057450;28;20197;-67
2023/02/09 09:13:38;;;;;;;22.60;12.70;;;;;;;3.39;100.00;103149.47;5057790;28;20181;-67
2023/02/09 09:16:05;;;;;;;21.87;13.10;;;;;;;3.90;93.12;103146.25;5051780;28;20213;-67
2023/02/09 09:18:30;;;;;;;20.97;12.60;;;;;;;4.40;87.96;103131.88;5056553;28;20217;-67
2023/02/09 09:20:55;;;;;;;21.47;12.70;;;;;;;4.53;84.76;103141.34;5057252;28;20684;-67
2023/02/09 09:23:21;;;;;;;24.87;13.53;;;;;;;4.04;85.46;103141.56;5052263;28;20219;-67
2023/02/09 09:25:47;;;;;;;21.43;13.43;;;;;;;4.38;86.65;103129.97;5058861;28;20204;-67
2023/02/09 09:28:12;;;;;;;21.73;12.70;;;;;;;5.25;81.42;103126.84;5051508;28;20651;-67
2023/02/09 09:30:37;;;;;;;19.90;12.03;;;;;;;5.69;74.91;103120.94;5057570;28;20299;-67
2023/02/09 09:33:03;;;;;;;20.60;11.67;;;;;;;7.03;68.59;103112.28;5032781;28;20272;-67
2023/02/09 09:35:29;;;;;;;17.67;12.40;;;;;;;6.79;65.54;103114.75;5047617;28;20259;-67
2023/02/09 09:37:56;;;;;;;20.80;12.27;;;;;;;7.35;63.65;103112.84;5057438;28;20212;-66
2023/02/09 09:40:31;;;;;;;19.80;12.40;;;;;;;7.38;63.97;103096.88;5055592;28;20201;-66
2023/02/09 09:42:59;;;;;;;20.57;12.83;;;;;;;7.71;60.57;103106.78;5055652;28;20243;-67
2023/02/09 09:45:28;;;;;;;18.70;12.67;;;;;;;8.04;58.41;103109.03;5035374;28;20245;-66
2023/02/09 09:47:55;;;;;;;17.10;11.30;;;;;;;8.52;55.64;103090.13;5058052;28;20200;-67
2023/02/09 09:50:35;;;;;;;16.57;11.17;;;;;;;7.72;59.23;103083.94;5040497;28;20989;-66
2023/02/09 09:53:07;;;;;;;20.10;11.77;;;;;;;8.81;55.46;103095.41;5056851;28;20231;-66
2023/02/09 09:55:33;;;;;;;17.70;11.57;;;;;;;7.81;55.16;103084.56;5062032;28;20263;-68
2023/02/09 09:58:01;;;;;;;16.57;11.00;;;;;;;7.61;56.20;103073.81;5058154;28;20181;-67
2023/02/09 10:00:47;;;;;;;17.50;11.03;;;;;;;7.75;55.47;103083.28;5056522;28;20908;-66
2023/02/09 10:03:15;;;;;;;18.13;11.23;;;;;;;8.80;51.58;103090.22;5060095;28;20221;-67
2023/02/09 10:05:42;;;;;;;15.87;11.17;;;;;;;9.61;48.59;103075.66;5060167;28;20236;-67
2023/02/09 10:08:26;;;;;;;17.50;10.63;;;;;;;8.75;49.66;103072.03;5057089;28;20204;-66
2023/02/09 10:11:14;;;;;;;18.50;11.83;;;;;;;9.87;47.68;103075.47;5056106;28;20203;-66
2023/02/09 10:13:50;;;;;;;16.00;10.63;;;;;;;9.12;47.94;103077.75;5062992;28;20682;-67
2023/02/09 10:16:20;;;;;;;21.40;11.33;;;;;;;9.39;47.45;103070.06;5060024;28;20213;-67
2023/02/09 10:18:57;;;;;;;13.97;9.97;;;;;;;10.57;45.96;103068.47;5054603;28;20653;-67
2023/02/09 10:21:32;;;;;;;18.10;10.83;;;;;;;10.63;42.33;103061.13;5060190;28;20264;-67
2023/02/09 10:24:00;;;;;;;15.27;10.90;;;;;;;10.56;42.94;103073.50;5063850;28;20212;-67
2023/02/09 10:26:29;;;;;;;17.67;10.83;;;;;;;10.08;43.35;103073.31;5047364;28;20681;-67
2023/02/09 10:28:58;;;;;;;15.37;10.13;;;;;;;10.10;42.87;103071.75;5062284;28;20197;-67
2023/02/09 10:31:37;;;;;;;15.13;10.40;;;;;;;10.99;42.58;103049.41;5062929;28;20651;-67
2023/02/09 10:34:11;;;;;;;15.33;10.50;;;;;;;9.57;44.22;103065.16;5058576;28;20756;-67
2023/02/09 10:36:52;;;;;;;16.73;11.03;;;;;;;8.98;46.42;103074.34;5057681;28;20580;-68
2023/02/09 10:39:29;;;;;;;15.10;10.07;;;;;;;8.78;48.32;103090.13;5059696;28;20204;-67
2023/02/09 10:41:59;;;;;;;16.77;10.67;;;;;;;9.01;47.81;103071.09;5059357;28;20278;-67
2023/02/09 10:44:34;;;;;;;15.50;10.87;;;;;;;8.54;48.73;103073.25;5064966;28;20630;-67
2023/02/09 10:47:28;;;;;;;17.03;11.13;;;;;;;9.34;47.29;103052.66;5058178;28;20204;-66
2023/02/09 10:50:12;;;;;;;15.83;10.30;;;;;;;9.56;48.95;103055.72;5034451;28;20602;-70
2023/02/09 10:52:43;;;;;;;15.73;10.33;;;;;;;10.32;45.41;103046.56;5063062;28;20212;-72
2023/02/09 10:55:20;;;;;;;18.17;11.27;;;;;;;10.51;43.41;103050.19;5058731;28;20197;-66
2023/02/09 10:57:45;;;;;;;15.23;10.50;;;;;;;9.78;44.26;103028.03;5023009;28;20236;-65
2023/02/09 11:00:14;;;;;;;16.93;10.53;;;;;;;10.18;43.73;103021.88;5024802;28;20236;-65
2023/02/09 11:03:00;;;;;;;13.37;9.90;;;;;;;9.14;45.49;103040.38;5061877;28;20273;-65
2023/02/09 11:05:32;;;;;;;17.07;10.13;;;;;;;7.84;49.94;103066.88;5061716;28;20225;-65
2023/02/09 11:08:16;;;;;;;14.97;9.80;;;;;;;7.73;52.17;103059.31;5062107;28;20779;-65
2023/02/09 11:10:47;;;;;;;19.67;10.57;;;;;;;7.05;53.22;103057.22;5061303;28;20185;-66
2023/02/09 11:13:20;;;;;;;15.90;10.60;;;;;;;7.52;52.42;103042.63;5061973;28;20221;-65
2023/02/09 11:16:03;;;;;;;17.20;10.10;;;;;;;6.95;54.63;103049.72;5058547;28;20266;-65
2023/02/09 11:18:32;;;;;;;14.93;10.07;;;;;;;7.54;52.16;103046.13;5054071;28;20205;-65
2023/02/09 11:21:13;;;;;;;16.87;11.07;;;;;;;8.36;50.66;103055.88;5052012;28;20199;-65